< < Back
Terminal Aerodrome Forecast


Current Version              Previous Versions:   1  2  3  4  5  6  7  8  9  

Terminal Aerodrome Forecast

785
FTUS42 KILM 221700
TAFFLO
TAF
KFLO 221727Z 2218/2318 04007KT 6SM -RA BR OVC005
      TEMPO 2219/2223 3SM -RA BR OVC006
     FM230700 VRB03KT 3SM BR OVC004=

Latest METAR

660
SAUS70 KWBC 222200 RRL
MTRFLO
METAR KFLO 222153Z 04009KT 6SM BR OVC005 07/05 A3001 RMK AO2 SLP162
T00670050


USA.gov is the U.S. government's official web portal to all federal, state and local government web resources and services.